Terminal Aerodrome Forecast
Issued by NWS

Current Version | Previous Version | Text Only | Print | Product List | Glossary On
Versions: 1 2 3 4 5 6 7 8 9 10 11 12 13 14 15 16 17 18 19 20 21 22
855
FTUS42 KJAX 231743
TAFCRG
TAF
KCRG 231743Z 2318/2418 03016G26KT P6SM VCSH SCT020 BKN035 OVC100
      TEMPO 2318/2320 5SM -SHRA BKN015
     FM240000 01008KT P6SM SCT015 BKN025
     FM241300 02008KT P6SM SCT015=

USA.gov is the U.S. government's official web portal to all federal, state and local government web resources and services.